createdAt,value
2022-11-25T00:00:46.000Z,1004.8
2022-11-25T00:02:03.000Z,1004.7
2022-11-25T00:03:19.000Z,1004.7
2022-11-25T00:04:35.000Z,1004.7
2022-11-25T00:05:51.000Z,1004.6
2022-11-25T00:07:07.000Z,1004.7
2022-11-25T00:08:24.000Z,1004.7
2022-11-25T00:09:40.000Z,1004.7
2022-11-25T00:10:56.000Z,1004.7
2022-11-25T00:12:11.000Z,1004.7
2022-11-25T00:13:27.000Z,1004.6
2022-11-25T00:14:44.000Z,1004.6
2022-11-25T00:16:00.000Z,1004.6
2022-11-25T00:17:16.000Z,1004.6
2022-11-25T00:18:32.000Z,1004.6
2022-11-25T00:19:48.000Z,1004.7
2022-11-25T00:21:04.000Z,1004.6
2022-11-25T00:22:21.000Z,1004.6
2022-11-25T00:23:37.000Z,1004.6
2022-11-25T00:24:53.000Z,1004.5
2022-11-25T00:26:09.000Z,1004.5
2022-11-25T00:27:25.000Z,1004.5
2022-11-25T00:28:41.000Z,1004.5
2022-11-25T00:29:57.000Z,1004.5
2022-11-25T00:31:13.000Z,1004.5
2022-11-25T00:32:29.000Z,1004.4
2022-11-25T00:33:45.000Z,1004.4
2022-11-25T00:35:02.000Z,1004.4
2022-11-25T00:36:18.000Z,1004.4
2022-11-25T00:37:34.000Z,1004.4
2022-11-25T00:38:50.000Z,1004.3
2022-11-25T00:40:06.000Z,1004.3
2022-11-25T00:41:22.000Z,1004.3
2022-11-25T00:42:39.000Z,1004.3
2022-11-25T00:43:55.000Z,1004.3
2022-11-25T00:45:10.000Z,1004.3
2022-11-25T00:46:26.000Z,1004.3
2022-11-25T00:47:42.000Z,1004.3
2022-11-25T00:48:59.000Z,1004.4
2022-11-25T00:50:15.000Z,1004.3
2022-11-25T00:51:31.000Z,1004.4
2022-11-25T00:52:46.000Z,1004.3
2022-11-25T00:54:02.000Z,1004.4
2022-11-25T00:55:19.000Z,1004.3
2022-11-25T00:56:35.000Z,1004.3
2022-11-25T00:57:51.000Z,1004.4
2022-11-25T00:59:07.000Z,1004.3
2022-11-25T01:00:23.000Z,1004.4
2022-11-25T01:01:40.000Z,1004.3
2022-11-25T01:02:56.000Z,1004.3
2022-11-25T01:04:12.000Z,1004.2
2022-11-25T01:05:28.000Z,1004.2
2022-11-25T01:06:44.000Z,1004.3
2022-11-25T01:08:00.000Z,1004.2
2022-11-25T01:09:16.000Z,1004.2
2022-11-25T01:10:32.000Z,1004.2
2022-11-25T01:11:48.000Z,1004.1
2022-11-25T01:13:04.000Z,1004.1
2022-11-25T01:14:20.000Z,1004.1
2022-11-25T01:15:37.000Z,1004.2
2022-11-25T01:16:53.000Z,1004.1
2022-11-25T01:18:09.000Z,1004.1
2022-11-25T01:19:25.000Z,1004.1
2022-11-25T01:20:41.000Z,1004.1
2022-11-25T01:21:58.000Z,1004.1
2022-11-25T01:23:14.000Z,1004
2022-11-25T01:24:30.000Z,1004.2
2022-11-25T01:25:45.000Z,1004.1
2022-11-25T01:27:01.000Z,1004.2
2022-11-25T01:28:17.000Z,1004.2
2022-11-25T01:29:34.000Z,1004.1
2022-11-25T01:30:50.000Z,1004.2
2022-11-25T01:32:06.000Z,1004.2
2022-11-25T01:33:22.000Z,1004.2
2022-11-25T01:34:38.000Z,1004.2
2022-11-25T01:35:55.000Z,1004.2
2022-11-25T01:37:11.000Z,1004.1
2022-11-25T01:38:27.000Z,1004.1
2022-11-25T01:39:43.000Z,1004.1
2022-11-25T01:40:59.000Z,1004.1
2022-11-25T01:42:15.000Z,1004.1
2022-11-25T01:43:31.000Z,1004.1
2022-11-25T01:44:47.000Z,1004
2022-11-25T01:46:03.000Z,1004
2022-11-25T01:47:19.000Z,1004
2022-11-25T01:48:36.000Z,1004.1
2022-11-25T01:49:52.000Z,1004.1
2022-11-25T01:51:08.000Z,1004.1
2022-11-25T01:52:24.000Z,1004.2
2022-11-25T01:53:40.000Z,1004.1
2022-11-25T01:54:56.000Z,1004.1
2022-11-25T01:56:13.000Z,1004.1
2022-11-25T01:57:29.000Z,1004.1
2022-11-25T01:58:44.000Z,1004.1
2022-11-25T02:00:00.000Z,1004
2022-11-25T02:01:16.000Z,1004
2022-11-25T02:02:33.000Z,1004
2022-11-25T02:03:49.000Z,1004
2022-11-25T02:05:05.000Z,1004
2022-11-25T02:06:21.000Z,1004
2022-11-25T02:07:37.000Z,1004
2022-11-25T02:08:54.000Z,1004
2022-11-25T02:10:10.000Z,1003.9
2022-11-25T02:11:26.000Z,1003.9
2022-11-25T02:12:42.000Z,1003.9
2022-11-25T02:13:58.000Z,1003.9
2022-11-25T02:15:13.000Z,1003.9
2022-11-25T02:16:30.000Z,1003.9
2022-11-25T02:17:46.000Z,1003.9
2022-11-25T02:19:02.000Z,1003.9
2022-11-25T02:20:18.000Z,1003.9
2022-11-25T02:21:34.000Z,1003.9
2022-11-25T02:22:51.000Z,1003.9
2022-11-25T02:24:07.000Z,1003.9
2022-11-25T02:25:23.000Z,1003.9
2022-11-25T02:26:39.000Z,1003.9
2022-11-25T02:27:55.000Z,1003.9
2022-11-25T02:29:12.000Z,1004
2022-11-25T02:30:28.000Z,1003.9
2022-11-25T02:31:43.000Z,1003.9
2022-11-25T02:32:59.000Z,1004
2022-11-25T02:34:15.000Z,1004
2022-11-25T02:35:32.000Z,1003.9
2022-11-25T02:36:48.000Z,1003.9
2022-11-25T02:38:04.000Z,1003.9
2022-11-25T02:39:20.000Z,1003.9
2022-11-25T02:40:36.000Z,1003.9
2022-11-25T02:41:52.000Z,1003.9
2022-11-25T02:43:09.000Z,1003.9
2022-11-25T02:44:25.000Z,1003.9
2022-11-25T02:45:41.000Z,1003.8
2022-11-25T02:46:57.000Z,1003.9
2022-11-25T02:48:12.000Z,1003.8
2022-11-25T02:49:29.000Z,1003.8
2022-11-25T02:50:45.000Z,1003.8
2022-11-25T02:52:01.000Z,1003.8
2022-11-25T02:53:17.000Z,1003.8
2022-11-25T02:54:33.000Z,1003.7
2022-11-25T02:55:50.000Z,1003.8
2022-11-25T02:57:06.000Z,1003.7
2022-11-25T02:58:22.000Z,1003.6
2022-11-25T02:59:38.000Z,1003.7
2022-11-25T03:00:54.000Z,1003.7
2022-11-25T03:02:10.000Z,1003.7
2022-11-25T03:03:27.000Z,1003.7
2022-11-25T03:04:42.000Z,1003.7
2022-11-25T03:05:58.000Z,1003.7
2022-11-25T03:07:14.000Z,1003.7
2022-11-25T03:08:30.000Z,1003.6
2022-11-25T03:09:47.000Z,1003.7
2022-11-25T03:11:03.000Z,1003.7
2022-11-25T03:12:19.000Z,1003.7
2022-11-25T03:13:35.000Z,1003.6
2022-11-25T03:14:51.000Z,1003.6
2022-11-25T03:16:08.000Z,1003.6
2022-11-25T03:17:24.000Z,1003.7
2022-11-25T03:18:40.000Z,1003.7
2022-11-25T03:19:56.000Z,1003.6
2022-11-25T03:21:11.000Z,1003.7
2022-11-25T03:22:27.000Z,1003.7
2022-11-25T03:23:44.000Z,1003.7
2022-11-25T03:25:00.000Z,1003.7
2022-11-25T03:26:16.000Z,1003.6
2022-11-25T03:27:32.000Z,1003.6
2022-11-25T03:28:48.000Z,1003.7
2022-11-25T03:30:05.000Z,1003.7
2022-11-25T03:31:21.000Z,1003.8
2022-11-25T03:32:37.000Z,1003.8
2022-11-25T03:33:53.000Z,1003.7
2022-11-25T03:35:09.000Z,1003.8
2022-11-25T03:36:26.000Z,1003.8
2022-11-25T03:37:41.000Z,1003.8
2022-11-25T03:38:57.000Z,1003.8
2022-11-25T03:40:13.000Z,1003.8
2022-11-25T03:41:29.000Z,1003.9
2022-11-25T03:42:46.000Z,1003.9
2022-11-25T03:44:02.000Z,1003.9
2022-11-25T03:45:18.000Z,1003.9
2022-11-25T03:46:34.000Z,1003.9
2022-11-25T03:47:50.000Z,1003.9
2022-11-25T03:49:06.000Z,1003.9
2022-11-25T03:50:23.000Z,1003.9
2022-11-25T03:51:39.000Z,1003.9
2022-11-25T03:52:55.000Z,1004
2022-11-25T03:54:10.000Z,1003.9
2022-11-25T03:55:26.000Z,1004
2022-11-25T03:56:43.000Z,1004
2022-11-25T03:57:59.000Z,1004
2022-11-25T03:59:15.000Z,1003.9
2022-11-25T04:00:31.000Z,1004
2022-11-25T04:01:47.000Z,1003.9
2022-11-25T04:03:04.000Z,1004
2022-11-25T04:04:20.000Z,1004
2022-11-25T04:05:36.000Z,1004
2022-11-25T04:06:52.000Z,1004
2022-11-25T04:08:08.000Z,1004
2022-11-25T04:09:25.000Z,1004
2022-11-25T04:10:40.000Z,1004.1
2022-11-25T04:11:56.000Z,1004.1
2022-11-25T04:13:12.000Z,1004.1
2022-11-25T04:14:28.000Z,1004.1
2022-11-25T04:15:44.000Z,1004.1
2022-11-25T04:17:01.000Z,1004
2022-11-25T04:18:17.000Z,1004
2022-11-25T04:19:33.000Z,1004
2022-11-25T04:20:49.000Z,1004
2022-11-25T04:22:05.000Z,1004
2022-11-25T04:23:22.000Z,1004
2022-11-25T04:24:38.000Z,1004
2022-11-25T04:25:54.000Z,1004
2022-11-25T04:27:09.000Z,1004.1
2022-11-25T04:28:25.000Z,1004
2022-11-25T04:29:42.000Z,1004
2022-11-25T04:30:58.000Z,1004.1
2022-11-25T04:32:14.000Z,1004.1
2022-11-25T04:33:30.000Z,1004.1
2022-11-25T04:34:46.000Z,1004.1
2022-11-25T04:36:03.000Z,1004.1
2022-11-25T04:37:19.000Z,1004.1
2022-11-25T04:38:35.000Z,1004.1
2022-11-25T04:39:51.000Z,1004
2022-11-25T04:41:07.000Z,1004.2
2022-11-25T04:42:23.000Z,1004.1
2022-11-25T04:43:39.000Z,1004.2
2022-11-25T04:44:55.000Z,1004.1
2022-11-25T04:46:11.000Z,1004.2
2022-11-25T04:47:27.000Z,1004.2
2022-11-25T04:48:43.000Z,1004.2
2022-11-25T04:50:00.000Z,1004.2
2022-11-25T04:51:16.000Z,1004.2
2022-11-25T04:52:32.000Z,1004.2
2022-11-25T04:53:48.000Z,1004.2
2022-11-25T04:55:04.000Z,1004.3
2022-11-25T04:56:21.000Z,1004.3
2022-11-25T04:57:37.000Z,1004.3
2022-11-25T04:58:53.000Z,1004.3
2022-11-25T05:00:08.000Z,1004.3
2022-11-25T05:01:24.000Z,1004.3
2022-11-25T05:02:41.000Z,1004.4
2022-11-25T05:03:57.000Z,1004.4
2022-11-25T05:05:13.000Z,1004.4
2022-11-25T05:06:29.000Z,1004.3
2022-11-25T05:07:44.000Z,1004.4
2022-11-25T05:09:00.000Z,1004.4
2022-11-25T05:10:17.000Z,1004.4
2022-11-25T05:11:33.000Z,1004.3
2022-11-25T05:12:49.000Z,1004.4
2022-11-25T05:14:05.000Z,1004.3
2022-11-25T05:15:21.000Z,1004.3
2022-11-25T05:16:38.000Z,1004.3
2022-11-25T05:17:54.000Z,1004.3
2022-11-25T05:19:10.000Z,1004.3
2022-11-25T05:20:26.000Z,1004.3
2022-11-25T05:21:42.000Z,1004.3
2022-11-25T05:22:59.000Z,1004.3
2022-11-25T05:24:14.000Z,1004.3
2022-11-25T05:25:30.000Z,1004.4
2022-11-25T05:26:46.000Z,1004.4
2022-11-25T05:28:02.000Z,1004.5
2022-11-25T05:29:19.000Z,1004.5
2022-11-25T05:30:35.000Z,1004.5
2022-11-25T05:31:51.000Z,1004.4
2022-11-25T05:33:07.000Z,1004.5
2022-11-25T05:34:23.000Z,1004.5
2022-11-25T05:35:39.000Z,1004.5
2022-11-25T05:36:56.000Z,1004.6
2022-11-25T05:38:12.000Z,1004.5
2022-11-25T05:39:28.000Z,1004.5
2022-11-25T05:40:43.000Z,1004.5
2022-11-25T05:41:59.000Z,1004.5
2022-11-25T05:43:16.000Z,1004.5
2022-11-25T05:44:32.000Z,1004.4
2022-11-25T05:45:48.000Z,1004.5
2022-11-25T05:47:04.000Z,1004.5
2022-11-25T05:48:20.000Z,1004.4
2022-11-25T05:49:37.000Z,1004.4
2022-11-25T05:50:53.000Z,1004.4
2022-11-25T05:52:09.000Z,1004.5
2022-11-25T05:53:25.000Z,1004.5
2022-11-25T05:54:41.000Z,1004.4
2022-11-25T05:55:57.000Z,1004.5
2022-11-25T05:57:13.000Z,1004.5
2022-11-25T05:58:29.000Z,1004.4
2022-11-25T05:59:45.000Z,1004.5
2022-11-25T06:01:01.000Z,1004.4
2022-11-25T06:02:17.000Z,1004.3
2022-11-25T06:03:34.000Z,1004.4
2022-11-25T06:04:50.000Z,1004.4
2022-11-25T06:06:06.000Z,1004.4
2022-11-25T06:07:22.000Z,1004.4
2022-11-25T06:08:38.000Z,1004.4
2022-11-25T06:09:55.000Z,1004.4
2022-11-25T06:11:11.000Z,1004.4
2022-11-25T06:12:27.000Z,1004.4
2022-11-25T06:13:43.000Z,1004.4
2022-11-25T06:14:58.000Z,1004.4
2022-11-25T06:16:15.000Z,1004.4
2022-11-25T06:17:31.000Z,1004.4
2022-11-25T06:18:47.000Z,1004.5
2022-11-25T06:20:03.000Z,1004.5
2022-11-25T06:21:19.000Z,1004.4
2022-11-25T06:22:35.000Z,1004.5
2022-11-25T06:23:52.000Z,1004.4
2022-11-25T06:25:08.000Z,1004.5
2022-11-25T06:26:24.000Z,1004.5
2022-11-25T06:27:40.000Z,1004.5
2022-11-25T06:28:56.000Z,1004.5
2022-11-25T06:30:13.000Z,1004.5
2022-11-25T06:31:28.000Z,1004.5
2022-11-25T06:32:44.000Z,1004.6
2022-11-25T06:34:00.000Z,1004.6
2022-11-25T06:35:16.000Z,1004.6
2022-11-25T06:36:33.000Z,1004.6
2022-11-25T06:37:49.000Z,1004.6
2022-11-25T06:39:05.000Z,1004.6
2022-11-25T06:40:21.000Z,1004.7
2022-11-25T06:41:37.000Z,1004.7
2022-11-25T06:42:54.000Z,1004.7
2022-11-25T06:44:10.000Z,1004.6
2022-11-25T06:45:26.000Z,1004.6
2022-11-25T06:46:42.000Z,1004.7
2022-11-25T06:47:57.000Z,1004.7
2022-11-25T06:49:13.000Z,1004.7
2022-11-25T06:50:30.000Z,1004.7
2022-11-25T06:51:46.000Z,1004.7
2022-11-25T06:53:02.000Z,1004.7
2022-11-25T06:54:18.000Z,1004.8
2022-11-25T06:55:34.000Z,1004.8
2022-11-25T06:56:51.000Z,1004.8
2022-11-25T06:58:07.000Z,1004.9
2022-11-25T06:59:23.000Z,1005.1
2022-11-25T07:00:39.000Z,1005.1
2022-11-25T07:01:55.000Z,1005.1
2022-11-25T07:03:12.000Z,1005.1
2022-11-25T07:04:28.000Z,1005.1
2022-11-25T07:05:43.000Z,1005.1
2022-11-25T07:06:59.000Z,1005.1
2022-11-25T07:08:15.000Z,1005.2
2022-11-25T07:09:32.000Z,1005.2
2022-11-25T07:10:48.000Z,1005.2
2022-11-25T07:12:04.000Z,1005.2
2022-11-25T07:13:20.000Z,1005.3
2022-11-25T07:14:36.000Z,1005.3
2022-11-25T07:15:52.000Z,1005.4
2022-11-25T07:17:09.000Z,1005.3
2022-11-25T07:18:25.000Z,1005.4
2022-11-25T07:19:41.000Z,1005.4
2022-11-25T07:20:57.000Z,1005.4
2022-11-25T07:22:12.000Z,1005.5
2022-11-25T07:23:29.000Z,1005.4
2022-11-25T07:24:45.000Z,1005.5
2022-11-25T07:26:01.000Z,1005.5
2022-11-25T07:27:17.000Z,1005.6
2022-11-25T07:28:33.000Z,1005.5
2022-11-25T07:29:50.000Z,1005.6
2022-11-25T07:31:06.000Z,1005.6
2022-11-25T07:32:22.000Z,1005.6
2022-11-25T07:33:38.000Z,1005.6
2022-11-25T07:34:54.000Z,1005.6
2022-11-25T07:36:11.000Z,1005.6
2022-11-25T07:37:27.000Z,1005.6
2022-11-25T07:38:42.000Z,1005.7
2022-11-25T07:39:58.000Z,1005.8
2022-11-25T07:41:14.000Z,1005.7
2022-11-25T07:42:30.000Z,1005.7
2022-11-25T07:43:47.000Z,1005.8
2022-11-25T07:45:03.000Z,1005.8
2022-11-25T07:46:19.000Z,1005.8
2022-11-25T07:47:35.000Z,1005.7
2022-11-25T07:48:51.000Z,1005.8
2022-11-25T07:50:08.000Z,1005.8
2022-11-25T07:51:24.000Z,1005.8
2022-11-25T07:52:40.000Z,1005.9
2022-11-25T07:53:56.000Z,1005.8
2022-11-25T07:55:11.000Z,1005.8
2022-11-25T07:56:28.000Z,1005.9
2022-11-25T07:57:44.000Z,1005.8
2022-11-25T07:59:00.000Z,1005.8
2022-11-25T08:00:16.000Z,1005.9
2022-11-25T08:01:32.000Z,1005.9
2022-11-25T08:02:49.000Z,1005.9
2022-11-25T08:04:05.000Z,1005.9
2022-11-25T08:05:21.000Z,1005.9
2022-11-25T08:06:37.000Z,1006
2022-11-25T08:07:53.000Z,1006
2022-11-25T08:09:09.000Z,1006
2022-11-25T08:10:26.000Z,1006
2022-11-25T08:11:41.000Z,1006.1
2022-11-25T08:12:57.000Z,1006
2022-11-25T08:14:13.000Z,1006.1
2022-11-25T08:15:29.000Z,1006.1
2022-11-25T08:16:46.000Z,1006
2022-11-25T08:18:02.000Z,1006.1
2022-11-25T08:19:18.000Z,1006
2022-11-25T08:20:34.000Z,1006.1
2022-11-25T08:21:50.000Z,1006.1
2022-11-25T08:23:07.000Z,1006.1
2022-11-25T08:24:23.000Z,1006
2022-11-25T08:25:39.426Z,1006.1
2022-11-25T08:26:55.000Z,1006.1
2022-11-25T08:28:10.000Z,1006.2
2022-11-25T08:29:27.000Z,1006.2
2022-11-25T08:30:43.000Z,1006.1
2022-11-25T08:31:59.000Z,1006.2
2022-11-25T08:33:15.000Z,1006.3
2022-11-25T08:34:31.000Z,1006.3
2022-11-25T08:35:47.000Z,1006.2
2022-11-25T08:37:04.000Z,1006.2
2022-11-25T08:38:20.000Z,1006.3
2022-11-25T08:39:36.000Z,1006.3
2022-11-25T08:40:52.000Z,1006.3
2022-11-25T08:42:08.000Z,1006.3
2022-11-25T08:43:25.000Z,1006.4
2022-11-25T08:44:40.000Z,1006.3
2022-11-25T08:45:56.000Z,1006.3
2022-11-25T08:47:12.000Z,1006.3
2022-11-25T08:48:28.000Z,1006.4
2022-11-25T08:49:45.000Z,1006.4
2022-11-25T08:51:01.000Z,1006.4
2022-11-25T08:52:17.000Z,1006.5
2022-11-25T08:53:33.000Z,1006.4
2022-11-25T08:54:49.000Z,1006.6
2022-11-25T08:56:05.000Z,1006.5
2022-11-25T08:57:22.000Z,1006.6
2022-11-25T08:58:38.000Z,1006.5
2022-11-25T08:59:54.000Z,1006.4
2022-11-25T09:01:09.000Z,1006.4
2022-11-25T09:02:25.000Z,1006.4
2022-11-25T09:03:42.000Z,1006.4
2022-11-25T09:04:58.000Z,1006.4
2022-11-25T09:06:14.000Z,1006.3
2022-11-25T09:07:30.000Z,1006.4
2022-11-25T09:08:46.000Z,1006.4
2022-11-25T09:10:03.000Z,1006.4
2022-11-25T09:11:19.000Z,1006.3
2022-11-25T09:12:35.000Z,1006.5
2022-11-25T09:13:51.000Z,1006.5
2022-11-25T09:15:07.000Z,1006.6
2022-11-25T09:16:24.000Z,1006.5
2022-11-25T09:17:39.000Z,1006.5
2022-11-25T09:18:55.000Z,1006.6
2022-11-25T09:20:11.000Z,1006.5
2022-11-25T09:21:27.000Z,1006.5
2022-11-25T09:22:43.000Z,1006.5
2022-11-25T09:23:59.000Z,1006.6
2022-11-25T09:25:15.000Z,1006.6
2022-11-25T09:26:31.000Z,1006.5
2022-11-25T09:27:47.000Z,1006.7
2022-11-25T09:29:03.000Z,1006.7
2022-11-25T09:30:20.000Z,1006.6
2022-11-25T09:31:36.000Z,1006.7
2022-11-25T09:32:52.000Z,1006.6
2022-11-25T09:34:08.000Z,1006.6
2022-11-25T09:35:24.000Z,1006.7
2022-11-25T09:36:41.000Z,1006.7
2022-11-25T09:37:57.000Z,1006.7
2022-11-25T09:39:12.000Z,1006.7
2022-11-25T09:40:28.000Z,1006.7
2022-11-25T09:41:44.000Z,1006.7
2022-11-25T09:43:01.000Z,1006.7
2022-11-25T09:44:17.000Z,1006.6
2022-11-25T09:45:33.000Z,1006.7
2022-11-25T09:46:49.000Z,1006.7
2022-11-25T09:48:05.000Z,1006.7
2022-11-25T09:49:21.000Z,1006.7
2022-11-25T09:50:38.000Z,1006.7
2022-11-25T09:51:54.000Z,1006.7
2022-11-25T09:53:10.000Z,1006.7
2022-11-25T09:54:26.000Z,1006.7
2022-11-25T09:55:41.000Z,1006.7
2022-11-25T09:56:58.000Z,1006.7
2022-11-25T09:58:14.000Z,1006.8
2022-11-25T09:59:30.000Z,1006.8
2022-11-25T10:00:46.000Z,1006.7
2022-11-25T10:02:02.000Z,1006.8
2022-11-25T10:03:19.000Z,1006.7
2022-11-25T10:04:35.000Z,1006.7
2022-11-25T10:05:51.000Z,1006.8
2022-11-25T10:07:07.000Z,1006.8
2022-11-25T10:08:23.000Z,1006.8
2022-11-25T10:09:40.000Z,1006.9
2022-11-25T10:10:56.000Z,1006.9
2022-11-25T10:12:11.000Z,1006.9
2022-11-25T10:13:27.000Z,1006.9
2022-11-25T10:14:43.000Z,1006.8
2022-11-25T10:15:59.000Z,1007.1
2022-11-25T10:17:16.000Z,1007
2022-11-25T10:18:32.000Z,1007.1
2022-11-25T10:19:48.000Z,1007.1
2022-11-25T10:21:04.000Z,1007.1
2022-11-25T10:22:20.000Z,1007
2022-11-25T10:23:37.000Z,1007.1
2022-11-25T10:24:53.000Z,1007.1
2022-11-25T10:26:09.000Z,1007.2
2022-11-25T10:27:25.000Z,1007.2
2022-11-25T10:28:40.000Z,1007.2
2022-11-25T10:29:57.000Z,1007.2
2022-11-25T10:31:13.000Z,1007.2
2022-11-25T10:32:29.000Z,1007.2
2022-11-25T10:33:45.000Z,1007.2
2022-11-25T10:35:01.000Z,1007.1
2022-11-25T10:36:18.000Z,1007.2
2022-11-25T10:37:34.000Z,1007.3
2022-11-25T10:38:50.000Z,1007.3
2022-11-25T10:40:06.000Z,1007.2
2022-11-25T10:41:22.000Z,1007.2
2022-11-25T10:42:38.000Z,1007.2
2022-11-25T10:43:55.000Z,1007.3
2022-11-25T10:45:10.000Z,1007.3
2022-11-25T10:46:26.000Z,1007.3
2022-11-25T10:47:42.000Z,1007.3
2022-11-25T10:48:58.000Z,1007.3
2022-11-25T10:50:15.000Z,1007.3
2022-11-25T10:51:31.000Z,1007.3
2022-11-25T10:52:47.000Z,1007.3
2022-11-25T10:54:03.000Z,1007.2
2022-11-25T10:55:19.000Z,1007.4
2022-11-25T10:56:36.000Z,1007.3
2022-11-25T10:57:52.000Z,1007.3
2022-11-25T10:59:08.000Z,1007.2
2022-11-25T11:00:24.000Z,1007.3
2022-11-25T11:01:39.000Z,1007.2
2022-11-25T11:02:56.000Z,1007.3
2022-11-25T11:04:12.000Z,1007.3
2022-11-25T11:05:28.000Z,1007.3
2022-11-25T11:06:44.000Z,1007.4
2022-11-25T11:08:00.000Z,1007.3
2022-11-25T11:09:16.000Z,1007.2
2022-11-25T11:10:33.000Z,1007.2
2022-11-25T11:11:49.000Z,1007.2
2022-11-25T11:13:05.000Z,1007.2
2022-11-25T11:14:21.000Z,1007.2
2022-11-25T11:15:37.000Z,1007.3
2022-11-25T11:16:54.000Z,1007.3
2022-11-25T11:18:09.000Z,1007.3
2022-11-25T11:19:25.000Z,1007.3
2022-11-25T11:20:41.000Z,1007.5
2022-11-25T11:21:57.000Z,1007.5
2022-11-25T11:23:14.000Z,1007.6
2022-11-25T11:24:30.000Z,1007.4
2022-11-25T11:25:46.000Z,1007.6
2022-11-25T11:27:02.000Z,1007.5
2022-11-25T11:28:18.000Z,1007.5
2022-11-25T11:29:35.000Z,1007.5
2022-11-25T11:30:51.000Z,1007.6
2022-11-25T11:32:07.000Z,1007.5
2022-11-25T11:33:23.000Z,1007.6
2022-11-25T11:34:38.000Z,1007.5
2022-11-25T11:35:54.000Z,1007.6
2022-11-25T11:37:11.000Z,1007.5
2022-11-25T11:38:27.000Z,1007.6
2022-11-25T11:39:43.000Z,1007.6
2022-11-25T11:40:59.000Z,1007.6
2022-11-25T11:42:15.000Z,1007.6
2022-11-25T11:43:32.000Z,1007.7
2022-11-25T11:44:48.000Z,1007.6
2022-11-25T11:46:04.000Z,1007.6
2022-11-25T11:47:20.000Z,1007.6
2022-11-25T11:48:36.000Z,1007.7
2022-11-25T11:49:53.000Z,1007.6
2022-11-25T11:51:08.000Z,1007.7
2022-11-25T11:52:24.000Z,1007.7
2022-11-25T11:53:40.000Z,1007.6
2022-11-25T11:54:56.000Z,1007.6
2022-11-25T11:56:13.000Z,1007.7
2022-11-25T11:57:29.000Z,1007.7
2022-11-25T11:58:45.000Z,1007.8
2022-11-25T12:00:01.000Z,1007.7
2022-11-25T12:01:17.000Z,1007.7
2022-11-25T12:02:33.000Z,1007.8
2022-11-25T12:03:50.000Z,1007.8
2022-11-25T12:05:06.000Z,1007.9
2022-11-25T12:06:22.000Z,1007.9
2022-11-25T12:07:37.000Z,1007.8
2022-11-25T12:08:53.000Z,1007.8
2022-11-25T12:10:10.000Z,1007.8
2022-11-25T12:11:26.000Z,1007.8
2022-11-25T12:12:42.000Z,1007.9
2022-11-25T12:13:58.000Z,1007.9
2022-11-25T12:15:14.000Z,1008
2022-11-25T12:16:31.000Z,1008
2022-11-25T12:17:47.000Z,1008
2022-11-25T12:19:03.000Z,1008
2022-11-25T12:20:19.000Z,1007.9
2022-11-25T12:21:35.000Z,1008
2022-11-25T12:22:51.000Z,1007.9
2022-11-25T12:24:07.000Z,1007.9
2022-11-25T12:25:23.000Z,1007.9
2022-11-25T12:26:39.000Z,1007.8
2022-11-25T12:27:55.000Z,1008
2022-11-25T12:29:11.000Z,1008
2022-11-25T12:30:28.000Z,1008.1
2022-11-25T12:31:44.000Z,1008.2
2022-11-25T12:33:00.000Z,1008.1
2022-11-25T12:34:16.000Z,1008.1
2022-11-25T12:35:32.000Z,1008.1
2022-11-25T12:36:49.000Z,1008.1
2022-11-25T12:38:05.000Z,1008.1
2022-11-25T12:39:21.000Z,1008.1
2022-11-25T12:40:36.000Z,1008.2
2022-11-25T12:41:52.000Z,1008.2
2022-11-25T12:43:09.000Z,1008.1
2022-11-25T12:44:25.000Z,1008.2
2022-11-25T12:45:41.000Z,1008.2
2022-11-25T12:46:57.000Z,1008.2
2022-11-25T12:48:13.000Z,1008.3
2022-11-25T12:49:29.000Z,1008.2
2022-11-25T12:50:46.000Z,1008.3
2022-11-25T12:52:02.000Z,1008.3
2022-11-25T12:53:18.000Z,1008.3
2022-11-25T12:54:34.000Z,1008.3
2022-11-25T12:55:50.000Z,1008.3
2022-11-25T12:57:06.000Z,1008.4
2022-11-25T12:58:22.000Z,1008.5
2022-11-25T12:59:38.000Z,1008.4
2022-11-25T13:00:54.000Z,1008.5
2022-11-25T13:02:10.000Z,1008.5
2022-11-25T13:03:27.000Z,1008.5
2022-11-25T13:04:43.000Z,1008.5
2022-11-25T13:05:59.000Z,1008.6
2022-11-25T13:07:15.000Z,1008.6
2022-11-25T13:08:31.000Z,1008.7
2022-11-25T13:09:47.000Z,1008.7
2022-11-25T13:11:04.000Z,1008.6
2022-11-25T13:12:20.000Z,1008.6
2022-11-25T13:13:35.000Z,1008.7
2022-11-25T13:14:51.000Z,1008.7
2022-11-25T13:16:07.000Z,1008.7
2022-11-25T13:17:24.000Z,1008.7
2022-11-25T13:18:40.000Z,1008.7
2022-11-25T13:19:56.000Z,1008.8
2022-11-25T13:21:12.000Z,1008.8
2022-11-25T13:22:28.000Z,1008.8
2022-11-25T13:23:45.000Z,1008.8
2022-11-25T13:25:01.000Z,1008.9
2022-11-25T13:26:17.000Z,1008.8
2022-11-25T13:27:33.000Z,1008.9
2022-11-25T13:28:49.000Z,1008.8
2022-11-25T13:30:05.000Z,1008.9
2022-11-25T13:31:21.000Z,1008.9
2022-11-25T13:32:37.000Z,1009
2022-11-25T13:33:53.000Z,1009
2022-11-25T13:35:09.000Z,1008.9
2022-11-25T13:36:25.000Z,1009
2022-11-25T13:37:41.000Z,1008.9
2022-11-25T13:38:57.000Z,1009
2022-11-25T13:40:13.000Z,1009
2022-11-25T13:41:29.000Z,1009.1
2022-11-25T13:42:45.000Z,1009.1
2022-11-25T13:44:02.000Z,1009.1
2022-11-25T13:45:18.000Z,1009.1
2022-11-25T13:46:34.000Z,1009
2022-11-25T13:47:50.000Z,1009.1
2022-11-25T13:49:06.000Z,1009
2022-11-25T13:50:23.000Z,1009.1
2022-11-25T13:51:39.000Z,1009.2
2022-11-25T13:52:55.000Z,1009.2
2022-11-25T13:54:10.000Z,1009.2
2022-11-25T13:55:26.000Z,1009.2
2022-11-25T13:56:42.000Z,1009.2
2022-11-25T13:57:59.000Z,1009.2
2022-11-25T13:59:15.000Z,1009.2
2022-11-25T14:00:31.000Z,1009.3
2022-11-25T14:01:47.000Z,1009.3
2022-11-25T14:03:03.000Z,1009.3
2022-11-25T14:04:20.000Z,1009.3
2022-11-25T14:05:36.000Z,1009.2
2022-11-25T14:06:52.000Z,1009.3
2022-11-25T14:08:08.000Z,1009.4
2022-11-25T14:09:24.000Z,1009.4
2022-11-25T14:10:40.000Z,1009.4
2022-11-25T14:11:56.000Z,1009.5
2022-11-25T14:13:12.000Z,1009.5
2022-11-25T14:14:28.000Z,1009.5
2022-11-25T14:15:44.000Z,1009.6
2022-11-25T14:17:01.000Z,1009.6
2022-11-25T14:18:17.000Z,1009.6
2022-11-25T14:19:33.000Z,1009.6
2022-11-25T14:20:49.000Z,1009.7
2022-11-25T14:22:05.000Z,1009.7
2022-11-25T14:23:21.000Z,1009.7
2022-11-25T14:24:38.000Z,1009.7
2022-11-25T14:25:54.000Z,1009.7
2022-11-25T14:27:09.000Z,1009.7
2022-11-25T14:28:25.000Z,1009.7
2022-11-25T14:29:41.000Z,1009.8
2022-11-25T14:30:58.000Z,1009.8
2022-11-25T14:32:14.000Z,1009.7
2022-11-25T14:33:30.000Z,1009.7
2022-11-25T14:34:46.000Z,1009.7
2022-11-25T14:36:02.000Z,1009.7
2022-11-25T14:37:19.000Z,1009.7
2022-11-25T14:38:35.000Z,1009.7
2022-11-25T14:39:51.000Z,1009.7
2022-11-25T14:41:07.000Z,1009.8
2022-11-25T14:42:23.000Z,1009.7
2022-11-25T14:43:38.000Z,1009.7
2022-11-25T14:44:55.000Z,1009.8
2022-11-25T14:46:11.000Z,1009.8
2022-11-25T14:47:27.000Z,1009.8
2022-11-25T14:48:43.000Z,1009.8
2022-11-25T14:49:59.000Z,1009.9
2022-11-25T14:51:16.000Z,1009.9
2022-11-25T14:52:32.000Z,1009.8
2022-11-25T14:53:48.000Z,1009.8
2022-11-25T14:55:04.000Z,1009.8
2022-11-25T14:56:20.000Z,1009.9
2022-11-25T14:57:37.000Z,1009.9
2022-11-25T15:00:09.000Z,1010
2022-11-25T15:01:24.000Z,1009.9
2022-11-25T15:02:40.000Z,1009.9
2022-11-25T15:03:56.000Z,1010
2022-11-25T15:05:13.000Z,1010
2022-11-25T15:06:29.000Z,1010
2022-11-25T15:07:45.000Z,1010
2022-11-25T15:09:01.000Z,1010
2022-11-25T15:10:17.000Z,1010
2022-11-25T15:11:34.000Z,1010.1
2022-11-25T15:12:50.000Z,1010.2
2022-11-25T15:14:06.000Z,1010.2
2022-11-25T15:15:22.000Z,1010.2
2022-11-25T15:16:38.000Z,1010.2
2022-11-25T15:17:55.000Z,1010.2
2022-11-25T15:19:10.000Z,1010.2
2022-11-25T15:20:26.000Z,1010.2
2022-11-25T15:21:42.000Z,1010.2
2022-11-25T15:22:58.000Z,1010.2
2022-11-25T15:24:15.000Z,1010.2
2022-11-25T15:25:31.000Z,1010.3
2022-11-25T15:26:47.000Z,1010.3
2022-11-25T15:28:03.000Z,1010.4
2022-11-25T15:29:19.000Z,1010.4
2022-11-25T15:30:35.000Z,1010.4
2022-11-25T15:31:52.000Z,1010.4
2022-11-25T15:33:08.000Z,1010.4
2022-11-25T15:34:24.000Z,1010.4
2022-11-25T15:35:39.000Z,1010.4
2022-11-25T15:36:55.000Z,1010.4
2022-11-25T15:38:12.000Z,1010.4
2022-11-25T15:39:28.000Z,1010.5
2022-11-25T15:40:44.000Z,1010.5
2022-11-25T15:42:00.000Z,1010.5
2022-11-25T15:43:16.000Z,1010.6
2022-11-25T15:44:33.000Z,1010.6
2022-11-25T15:45:49.000Z,1010.6
2022-11-25T15:47:05.000Z,1010.6
2022-11-25T15:48:21.000Z,1010.6
2022-11-25T15:49:37.000Z,1010.6
2022-11-25T15:50:53.000Z,1010.6
2022-11-25T15:52:09.000Z,1010.7
2022-11-25T15:53:25.000Z,1010.7
2022-11-25T15:54:41.000Z,1010.7
2022-11-25T15:55:57.000Z,1010.7